MMTJ/TIJ METAR and TAF weather

Enter ICAO airport designator
Station Type Date Time Source
MMTJ METAR 2022/08/12 15:06 UTC NOAA

MMTJ 121506Z 28004KT 4SM FEW010 SCT200 21/19 A2998 RMK 8/508 HZY


Station Type Date Time Source
MMTJ Decoded METAR 2022/08/12 15:06 UTC NOAA

Tijuana International Airport , Mexico (MMTJ) 32-33N 116-58W
Aug 12, 2022 - 11:06 AM EDT / 2022.08.12 1506 UTC
Wind: from the W (280 degrees) at 5 MPH (4 KT):0
Visibility: 4 mile(s):0
Sky conditions: partly cloudy
Temperature: 69 F (21 C)
Dew Point: 66 F (19 C)
Relative Humidity: 88%
Pressure (altimeter): 29.98 in. Hg (1015 hPa)
ob: MMTJ 121506Z 28004KT 4SM FEW010 SCT200 21/19 A2998 RMK 8/508 HZY
cycle: 15

Station Type Date Time Source
MMTJ TAF 2022/08/12 12:34 UTC NOAA

TAF MMTJ 121027Z 1212/1318 30005KT P6SM SCT200 TX31/1219Z TN19/1212Z
FM121500 30010KT P6SM SCT250
FM130300 30005KT P6SM SCT015
FM130800 00000KT P6SM SCT010
TEMPO 1310/1314 BKN010
FM131500 30010KT P6SM SCT250

Example: see airport list